Time;durP1;ratioP1;P1;durP2;ratioP2;P2;SDS_P1;SDS_P2;PMS_P1;PMS_P2;Temp;Humidity;BMP_temperature;BMP_pressure;BME280_temperature;BME280_humidity;BME280_pressure;Samples;Min_cycle;Max_cycle;Signal;HPM_P1;HPM_P2
2021/11/20 00:00:17;;;;;;;4.53;2.10;;;20.30;51.00;;;;;;5111996;28;20363;-53
2021/11/20 00:02:43;;;;;;;6.30;2.45;;;20.30;51.10;;;;;;5113163;28;20092;-55
2021/11/20 00:05:11;;;;;;;4.30;2.33;;;20.30;51.10;;;;;;5113209;28;20020;-50
2021/11/20 00:07:37;;;;;;;5.57;2.35;;;20.30;51.00;;;;;;5113277;28;20057;-53
2021/11/20 00:10:07;;;;;;;7.07;2.67;;;20.20;51.00;;;;;;5113151;28;20557;-52
2021/11/20 00:12:33;;;;;;;6.95;2.47;;;20.30;51.00;;;;;;5113459;28;20027;-54
2021/11/20 00:14:59;;;;;;;5.57;2.47;;;20.30;51.00;;;;;;5113097;28;20457;-54
2021/11/20 00:17:26;;;;;;;4.25;2.03;;;20.30;51.00;;;;;;5113079;28;20463;-53
2021/11/20 00:19:52;;;;;;;6.63;2.30;;;20.30;51.00;;;;;;5113188;28;20023;-52
2021/11/20 00:22:24;;;;;;;5.20;2.53;;;20.30;51.00;;;;;;5113264;28;20054;-53
2021/11/20 00:24:54;;;;;;;6.20;2.55;;;20.20;51.00;;;;;;5115683;28;20076;-54
2021/11/20 00:27:28;;;;;;;4.97;2.50;;;20.30;51.00;;;;;;5117317;28;20024;-55
2021/11/20 00:32:54;;;;;;;4.53;2.13;;;20.30;50.90;;;;;;5099229;28;20030;-50
2021/11/20 00:35:24;;;;;;;5.57;2.60;;;20.20;50.90;;;;;;5117130;28;20353;-52
2021/11/20 00:37:51;;;;;;;6.72;2.45;;;20.20;50.90;;;;;;5117037;28;20028;-50
2021/11/20 00:40:33;;;;;;;5.13;2.10;;;20.30;51.00;;;;;;5116817;28;20471;-51
2021/11/20 00:42:59;;;;;;;5.82;2.10;;;20.30;50.90;;;;;;5116675;27;20047;-52
2021/11/20 00:45:25;;;;;;;4.70;2.20;;;20.30;50.90;;;;;;5116599;28;20027;-53
2021/11/20 00:47:51;;;;;;;5.55;2.58;;;20.20;50.90;;;;;;5116863;28;20028;-50
2021/11/20 00:50:18;;;;;;;5.72;2.35;;;20.30;50.90;;;;;;5116635;28;20024;-49
2021/11/20 00:52:45;;;;;;;5.60;2.35;;;20.30;50.90;;;;;;5116457;28;20471;-51
2021/11/20 00:55:14;;;;;;;7.63;2.47;;;20.20;50.90;;;;;;5116495;28;20027;-52
2021/11/20 00:57:42;;;;;;;3.95;2.20;;;20.20;50.90;;;;;;5116484;28;20020;-50
2021/11/20 01:00:11;;;;;;;4.85;2.40;;;20.30;50.90;;;;;;5116586;28;20046;-49
2021/11/20 01:02:37;;;;;;;6.07;2.47;;;20.30;50.90;;;;;;5116560;28;20089;-51
2021/11/20 01:05:05;;;;;;;3.97;2.10;;;20.30;50.90;;;;;;5116529;28;20502;-51
2021/11/20 01:07:31;;;;;;;5.72;2.10;;;20.20;50.90;;;;;;5116254;27;20077;-54
2021/11/20 01:09:56;;;;;;;4.75;2.22;;;20.30;50.90;;;;;;5116370;28;20030;-54
2021/11/20 01:12:27;;;;;;;5.05;2.03;;;20.20;50.90;;;;;;5116321;28;20024;-50
2021/11/20 01:14:53;;;;;;;5.00;2.28;;;20.20;50.80;;;;;;5116131;28;20031;-50
2021/11/20 01:17:22;;;;;;;5.57;2.63;;;20.30;50.80;;;;;;5116080;28;20467;-50
2021/11/20 01:19:50;;;;;;;4.38;2.17;;;20.20;50.80;;;;;;5116215;28;20024;-50
2021/11/20 01:22:17;;;;;;;4.93;2.28;;;20.30;50.80;;;;;;5116114;27;20087;-50
2021/11/20 01:24:44;;;;;;;4.20;1.88;;;20.30;50.80;;;;;;5115804;28;20509;-52
2021/11/20 01:27:11;;;;;;;3.30;1.80;;;20.30;50.80;;;;;;5114591;28;20020;-53
2021/11/20 01:29:37;;;;;;;4.63;2.28;;;20.30;50.80;;;;;;5115783;28;20352;-51
2021/11/20 01:32:03;;;;;;;5.45;2.40;;;20.20;50.80;;;;;;5115959;28;20110;-54
2021/11/20 01:34:29;;;;;;;5.65;2.40;;;20.20;50.80;;;;;;5115329;28;20024;-54
2021/11/20 01:36:58;;;;;;;5.15;2.25;;;20.30;50.80;;;;;;5115774;28;20099;-52
2021/11/20 01:39:28;;;;;;;5.18;2.05;;;20.20;50.80;;;;;;5115676;28;20052;-54
2021/11/20 01:42:10;;;;;;;4.65;2.13;;;20.20;50.80;;;;;;5115601;28;20090;-53
2021/11/20 01:44:46;;;;;;;4.50;2.03;;;20.20;50.80;;;;;;5115891;28;20047;-51
2021/11/20 01:47:26;;;;;;;5.40;2.22;;;20.20;50.80;;;;;;5115556;28;20398;-51
2021/11/20 01:50:00;;;;;;;6.18;2.30;;;20.30;50.80;;;;;;5116045;28;20031;-50
2021/11/20 01:52:34;;;;;;;;;;;20.20;50.70;;;;;;5115891;28;20479;-50
2021/11/20 01:55:18;;;;;;;4.28;2.10;;;20.20;50.80;;;;;;5115667;27;19904;-52
2021/11/20 01:57:56;;;;;;;4.50;2.03;;;20.20;50.80;;;;;;5114062;28;20509;-54
2021/11/20 02:01:01;;;;;;;4.95;2.60;;;20.20;50.80;;;;;;5115490;28;20127;-51
2021/11/20 02:03:40;;;;;;;5.75;2.45;;;20.20;50.80;;;;;;5115267;28;20038;-50
2021/11/20 02:06:42;;;;;;;4.45;2.15;;;20.20;50.80;;;;;;5113910;28;20027;-52
2021/11/20 02:09:16;;;;;;;4.32;2.03;;;20.20;50.80;;;;;;5115169;27;20043;-51
2021/11/20 02:12:09;;;;;;;6.00;2.38;;;20.20;50.70;;;;;;5115081;28;20023;-50
2021/11/20 02:14:35;;;;;;;5.10;2.42;;;20.20;50.80;;;;;;5106572;28;20115;-50
2021/11/20 02:17:14;;;;;;;4.88;2.13;;;20.20;50.70;;;;;;5115152;28;20015;-54
2021/11/20 02:19:44;;;;;;;5.00;2.20;;;20.20;50.70;;;;;;5114795;28;20026;-49
2021/11/20 02:22:36;;;;;;;4.00;1.70;;;20.20;50.80;;;;;;5114739;28;20039;-49
2021/11/20 02:25:02;;;;;;;4.25;2.10;;;20.20;50.70;;;;;;5114823;28;20026;-55
2021/11/20 02:27:30;;;;;;;5.07;2.13;;;20.20;50.70;;;;;;5114875;28;20445;-51
2021/11/20 02:30:31;;;;;;;6.60;2.65;;;20.20;50.70;;;;;;5114900;28;20103;-53
2021/11/20 02:33:04;;;;;;;5.03;2.20;;;20.20;50.70;;;;;;5114718;28;20066;-53
2021/11/20 02:35:42;;;;;;;5.57;2.58;;;20.20;50.70;;;;;;5114542;28;20043;-52
2021/11/20 02:38:12;;;;;;;5.07;2.47;;;20.20;50.60;;;;;;5114496;28;20151;-52
2021/11/20 02:40:39;;;;;;;3.80;1.80;;;20.20;50.70;;;;;;5114527;28;20094;-53
2021/11/20 02:43:05;;;;;;;4.97;2.10;;;20.20;50.70;;;;;;5114599;28;20128;-53
2021/11/20 02:45:35;;;;;;;4.60;2.50;;;20.20;50.70;;;;;;5114439;28;20028;-54
2021/11/20 02:48:01;;;;;;;4.88;2.05;;;20.20;50.70;;;;;;5113778;28;20028;-52
2021/11/20 02:50:32;;;;;;;5.30;2.15;;;20.20;50.70;;;;;;5114463;28;20030;-53
2021/11/20 02:52:58;;;;;;;4.57;2.03;;;20.20;50.60;;;;;;5112931;28;20490;-54
2021/11/20 02:55:24;;;;;;;4.95;2.20;;;20.20;50.60;;;;;;5114448;28;20027;-52
2021/11/20 02:57:49;;;;;;;4.93;2.20;;;20.20;50.60;;;;;;5114387;28;20023;-51
2021/11/20 03:00:17;;;;;;;4.90;2.13;;;20.20;50.60;;;;;;5114183;28;20019;-55
2021/11/20 03:02:43;;;;;;;5.70;2.10;;;20.20;50.60;;;;;;5113919;28;20035;-53
2021/11/20 03:05:10;;;;;;;3.78;1.60;;;20.20;50.60;;;;;;5113897;28;20020;-52
2021/11/20 03:07:36;;;;;;;4.45;2.42;;;20.20;50.60;;;;;;5114153;28;20051;-51
2021/11/20 03:10:04;;;;;;;5.43;2.35;;;20.20;50.60;;;;;;5113843;28;20479;-51
2021/11/20 03:12:29;;;;;;;4.60;2.08;;;20.20;50.60;;;;;;5114117;28;20059;-50
2021/11/20 03:14:56;;;;;;;4.03;1.92;;;20.20;50.60;;;;;;5113706;28;20048;-52
2021/11/20 03:17:21;;;;;;;4.85;2.28;;;20.20;50.60;;;;;;5113990;28;20030;-54
2021/11/20 03:19:48;;;;;;;4.63;2.15;;;20.20;50.60;;;;;;5113649;28;20028;-50
2021/11/20 03:22:19;;;;;;;4.50;2.20;;;20.20;50.50;;;;;;5113629;28;20449;-50
2021/11/20 03:24:46;;;;;;;4.45;2.05;;;20.20;50.50;;;;;;5113892;28;20036;-50
2021/11/20 03:27:12;;;;;;;4.80;2.22;;;20.20;50.50;;;;;;5113760;28;20111;-50
2021/11/20 03:29:37;;;;;;;4.78;2.15;;;20.20;50.50;;;;;;5113545;28;20069;-52
2021/11/20 03:32:05;;;;;;;4.45;2.28;;;20.20;50.50;;;;;;5112432;28;20220;-54
2021/11/20 03:34:32;;;;;;;4.15;1.90;;;20.20;50.50;;;;;;5113535;28;20019;-53
2021/11/20 03:36:58;;;;;;;6.30;2.50;;;20.20;50.50;;;;;;5113779;28;20120;-50
2021/11/20 03:39:24;;;;;;;7.28;2.30;;;20.20;50.60;;;;;;5113548;28;20023;-53
2021/11/20 03:41:50;;;;;;;4.75;2.13;;;20.20;50.60;;;;;;5113306;28;20048;-50
2021/11/20 03:44:15;;;;;;;4.38;2.10;;;20.20;50.50;;;;;;5113638;28;20055;-54
2021/11/20 03:46:42;;;;;;;4.07;2.15;;;20.20;50.50;;;;;;5113607;28;20028;-55
2021/11/20 03:49:08;;;;;;;5.43;2.28;;;20.20;50.50;;;;;;5113332;28;20074;-53
2021/11/20 03:51:34;;;;;;;4.75;2.20;;;20.20;50.50;;;;;;5113615;28;20059;-55
2021/11/20 03:54:00;;;;;;;4.30;2.15;;;20.20;50.50;;;;;;5113636;28;20099;-52
2021/11/20 03:56:26;;;;;;;3.90;1.95;;;20.20;50.50;;;;;;5113627;28;20020;-50
2021/11/20 03:58:52;;;;;;;5.35;2.22;;;20.20;50.50;;;;;;5116487;28;20015;-52
2021/11/20 04:01:21;;;;;;;4.78;2.17;;;20.20;50.50;;;;;;5117617;28;20532;-54
2021/11/20 04:03:47;;;;;;;4.28;2.05;;;20.20;50.50;;;;;;5117730;28;20028;-53
2021/11/20 04:06:15;;;;;;;5.78;2.30;;;20.20;50.50;;;;;;5117437;27;20458;-49
2021/11/20 04:08:49;;;;;;;5.10;2.63;;;20.20;50.50;;;;;;5117762;28;20028;-49
2021/11/20 04:11:20;;;;;;;3.40;1.90;;;20.20;50.50;;;;;;5117695;28;20047;-52
2021/11/20 04:13:46;;;;;;;5.68;2.60;;;20.20;50.50;;;;;;5117271;28;20031;-53
2021/11/20 04:16:14;;;;;;;4.47;1.90;;;20.20;50.50;;;;;;5117417;27;20455;-52
2021/11/20 04:18:42;;;;;;;3.85;2.10;;;20.20;50.40;;;;;;5117434;28;20031;-50
2021/11/20 04:21:08;;;;;;;4.75;2.20;;;20.20;50.50;;;;;;5117262;28;20232;-53
2021/11/20 04:23:34;;;;;;;4.95;2.22;;;20.20;50.50;;;;;;5117566;28;20024;-51
2021/11/20 04:25:59;;;;;;;5.40;2.10;;;20.20;50.50;;;;;;5117105;28;20016;-54
2021/11/20 04:28:25;;;;;;;4.50;2.30;;;20.20;50.40;;;;;;5116888;28;20024;-52
2021/11/20 04:30:51;;;;;;;5.03;2.45;;;20.20;50.40;;;;;;5117002;28;20039;-52
2021/11/20 04:33:17;;;;;;;5.05;2.20;;;20.20;50.40;;;;;;5117170;28;20031;-52
2021/11/20 04:35:43;;;;;;;4.65;2.17;;;20.10;50.40;;;;;;5117170;28;20039;-50
2021/11/20 04:38:10;;;;;;;4.22;2.20;;;20.20;50.40;;;;;;5117162;28;20030;-49
2021/11/20 04:40:37;;;;;;;3.95;1.80;;;20.20;50.50;;;;;;5116636;28;20386;-56
2021/11/20 04:43:03;;;;;;;5.00;2.42;;;20.10;50.40;;;;;;5116965;28;20058;-52
2021/11/20 04:45:33;;;;;;;5.00;2.05;;;20.20;50.40;;;;;;5116739;28;20470;-52
2021/11/20 04:48:01;;;;;;;4.32;1.98;;;20.20;50.40;;;;;;5116974;28;20024;-53
2021/11/20 04:50:27;;;;;;;5.50;2.08;;;20.20;50.40;;;;;;5116749;28;20110;-49
2021/11/20 04:52:53;;;;;;;3.90;1.98;;;20.20;50.40;;;;;;5116547;28;20391;-51
2021/11/20 04:55:19;;;;;;;4.10;1.83;;;20.20;50.40;;;;;;5116415;28;20016;-51
2021/11/20 04:57:45;;;;;;;4.28;1.75;;;20.10;50.40;;;;;;5116666;28;20028;-53
2021/11/20 05:00:36;;;;;;;5.57;2.30;;;20.10;50.50;;;;;;5116724;28;20031;-53
2021/11/20 05:03:07;;;;;;;5.35;2.47;;;20.10;50.40;;;;;;5116852;28;20118;-53
2021/11/20 05:05:35;;;;;;;4.20;1.73;;;20.20;50.40;;;;;;5116578;28;20028;-54
2021/11/20 05:08:02;;;;;;;4.80;2.25;;;20.20;50.40;;;;;;5116526;28;20076;-52
2021/11/20 05:10:28;;;;;;;4.25;2.00;;;20.20;50.40;;;;;;5115417;28;20024;-53
2021/11/20 05:12:54;;;;;;;4.70;1.80;;;20.10;50.30;;;;;;5116216;28;20084;-49
2021/11/20 05:15:20;;;;;;;3.45;1.77;;;20.20;50.30;;;;;;5116262;28;20507;-54
2021/11/20 05:17:46;;;;;;;5.38;2.08;;;20.20;50.30;;;;;;5115996;28;20348;-53
2021/11/20 05:20:13;;;;;;;5.30;2.05;;;20.20;50.30;;;;;;5115938;28;20458;-53
2021/11/20 05:22:38;;;;;;;4.07;1.90;;;20.20;50.30;;;;;;5116145;28;20174;-49
2021/11/20 05:25:06;;;;;;;3.40;1.83;;;20.30;50.20;;;;;;5116238;28;20019;-52
2021/11/20 05:27:32;;;;;;;3.72;2.05;;;20.30;50.10;;;;;;5115918;28;20031;-53
2021/11/20 05:30:04;;;;;;;4.25;2.10;;;20.30;50.10;;;;;;5116027;28;20027;-50
2021/11/20 05:32:31;;;;;;;4.70;1.85;;;20.30;50.10;;;;;;5115891;28;20027;-53
2021/11/20 05:34:56;;;;;;;4.00;1.98;;;20.40;50.00;;;;;;5116115;28;20027;-53
2021/11/20 05:37:22;;;;;;;4.20;1.60;;;20.40;49.90;;;;;;5116048;28;20032;-56
2021/11/20 05:39:47;;;;;;;4.53;2.17;;;20.40;49.90;;;;;;5115636;28;20016;-52
2021/11/20 05:42:13;;;;;;;4.18;1.92;;;20.40;49.90;;;;;;5115434;28;20056;-55
2021/11/20 05:44:39;;;;;;;5.57;2.13;;;20.40;49.80;;;;;;5115698;28;20081;-56
2021/11/20 05:47:05;;;;;;;5.05;2.30;;;20.40;49.80;;;;;;5115596;28;20077;-52
2021/11/20 05:49:34;;;;;;;4.50;1.80;;;20.40;49.80;;;;;;5115819;28;20027;-56
2021/11/20 05:52:00;;;;;;;3.80;1.98;;;20.50;49.80;;;;;;5115390;28;20028;-50
2021/11/20 05:54:27;;;;;;;4.93;2.20;;;20.40;49.80;;;;;;5115636;28;20032;-54
2021/11/20 05:56:53;;;;;;;4.22;2.00;;;20.40;49.80;;;;;;5115361;28;20541;-54
2021/11/20 05:59:19;;;;;;;6.13;2.10;;;20.40;49.80;;;;;;5115578;28;20028;-56
2021/11/20 06:01:45;;;;;;;4.22;2.10;;;20.40;49.80;;;;;;5114992;28;20028;-50
2021/11/20 06:04:11;;;;;;;4.30;1.90;;;20.40;49.80;;;;;;5115219;28;20035;-49
2021/11/20 06:06:37;;;;;;;4.30;1.92;;;20.40;49.80;;;;;;5115127;28;20034;-52
2021/11/20 06:09:03;;;;;;;4.22;2.05;;;20.40;49.80;;;;;;5115320;28;20470;-50
2021/11/20 06:11:29;;;;;;;3.90;1.88;;;20.40;49.80;;;;;;5113770;28;20111;-52
2021/11/20 06:13:54;;;;;;;3.88;1.92;;;20.40;49.90;;;;;;5115187;28;20538;-50
2021/11/20 06:16:20;;;;;;;6.00;2.47;;;20.40;49.90;;;;;;5115213;28;20507;-50
2021/11/20 06:18:45;;;;;;;4.75;2.35;;;20.40;49.90;;;;;;5114725;28;20110;-55
2021/11/20 06:21:11;;;;;;;4.78;2.08;;;20.40;49.90;;;;;;5113803;28;20046;-55
2021/11/20 06:23:39;;;;;;;4.55;1.77;;;20.40;49.90;;;;;;5115003;28;20031;-54
2021/11/20 06:26:05;;;;;;;4.28;1.70;;;20.40;49.90;;;;;;5115078;28;20055;-53
2021/11/20 06:28:31;;;;;;;4.25;1.95;;;20.40;49.80;;;;;;5114769;28;20501;-50
2021/11/20 06:30:58;;;;;;;5.03;2.33;;;20.40;49.90;;;;;;5114755;28;20024;-53
2021/11/20 06:33:24;;;;;;;4.72;1.83;;;20.40;49.90;;;;;;5114627;28;20043;-52
2021/11/20 06:35:51;;;;;;;5.25;2.00;;;20.40;49.90;;;;;;5114812;28;20054;-53
2021/11/20 06:38:17;;;;;;;4.63;1.92;;;20.40;49.80;;;;;;5114698;28;20020;-53
2021/11/20 06:40:45;;;;;;;4.75;2.28;;;20.40;49.90;;;;;;5114190;28;20403;-56
2021/11/20 06:43:16;;;;;;;3.90;2.00;;;20.40;49.90;;;;;;5114222;27;20062;-53
2021/11/20 06:45:45;;;;;;;3.58;2.00;;;20.40;49.90;;;;;;5114425;28;20103;-50
2021/11/20 06:48:11;;;;;;;4.32;2.30;;;20.40;49.90;;;;;;5114442;28;20024;-49
2021/11/20 06:50:38;;;;;;;3.92;1.70;;;20.40;49.90;;;;;;5114535;28;20024;-51
2021/11/20 06:53:06;;;;;;;4.65;2.22;;;20.40;49.90;;;;;;5114475;28;20028;-52
2021/11/20 06:55:34;;;;;;;3.72;1.88;;;20.30;49.90;;;;;;5114152;28;20024;-52
2021/11/20 07:00:45;;;;;;;4.88;2.17;;;20.40;49.90;;;;;;5114066;28;20027;-54
2021/11/20 07:03:15;;;;;;;4.40;2.40;;;20.40;49.80;;;;;;5114311;28;20024;-50
2021/11/20 07:05:49;;;;;;;4.45;2.05;;;20.40;49.80;;;;;;5114130;28;20047;-52
2021/11/20 07:08:17;;;;;;;5.30;2.25;;;20.40;49.80;;;;;;5114289;28;20034;-54
2021/11/20 07:10:44;;;;;;;5.93;2.20;;;20.40;49.80;;;;;;5113975;28;20032;-55
2021/11/20 07:13:12;;;;;;;3.70;2.00;;;20.40;49.80;;;;;;5113868;28;20420;-55
2021/11/20 07:15:38;;;;;;;5.50;2.50;;;20.40;49.80;;;;;;5114154;28;20046;-52
2021/11/20 07:18:04;;;;;;;3.53;1.85;;;20.40;49.80;;;;;;5113679;28;20020;-52
2021/11/20 07:20:32;;;;;;;5.20;2.50;;;20.40;49.80;;;;;;5113878;28;20387;-51
2021/11/20 07:22:59;;;;;;;4.72;1.90;;;20.40;49.80;;;;;;5113568;28;20509;-51
2021/11/20 07:25:26;;;;;;;4.25;1.70;;;20.40;49.80;;;;;;5113653;28;20110;-55
2021/11/20 07:27:53;;;;;;;4.55;1.70;;;20.40;49.80;;;;;;5113969;28;20074;-55
2021/11/20 07:30:20;;;;;;;5.32;2.17;;;20.40;49.80;;;;;;5113563;28;20544;-55
2021/11/20 07:32:46;;;;;;;7.00;2.17;;;20.40;49.80;;;;;;5113499;28;20023;-53
2021/11/20 07:35:21;;;;;;;5.32;2.63;;;20.40;49.80;;;;;;5113837;28;20157;-52
2021/11/20 07:37:46;;;;;;;4.40;2.00;;;20.40;49.70;;;;;;5113853;28;20080;-49
2021/11/20 07:40:12;;;;;;;3.83;1.90;;;20.40;49.70;;;;;;5113873;28;20103;-50
2021/11/20 07:42:38;;;;;;;4.65;2.20;;;20.40;49.70;;;;;;5113284;28;20078;-49
2021/11/20 07:45:05;;;;;;;4.40;2.13;;;20.40;49.70;;;;;;5113702;28;20039;-50
2021/11/20 07:47:31;;;;;;;5.15;2.20;;;20.40;49.70;;;;;;5113789;28;20081;-53
2021/11/20 07:49:56;;;;;;;3.75;1.98;;;20.40;49.70;;;;;;5113383;28;20019;-50
2021/11/20 07:52:22;;;;;;;4.75;2.10;;;20.40;49.70;;;;;;5113408;28;20027;-51
2021/11/20 07:54:48;;;;;;;3.08;1.65;;;20.40;49.70;;;;;;5113229;28;20046;-53
2021/11/20 07:57:13;;;;;;;5.15;2.50;;;20.40;49.70;;;;;;5113477;28;20463;-53
2021/11/20 07:59:39;;;;;;;4.38;2.10;;;20.40;49.70;;;;;;5113458;28;20543;-50
2021/11/20 08:02:07;;;;;;;5.57;2.42;;;20.40;49.70;;;;;;5113470;28;20030;-50
2021/11/20 08:04:35;;;;;;;4.43;2.03;;;20.40;49.70;;;;;;5113334;28;20111;-52
2021/11/20 08:07:02;;;;;;;4.47;2.33;;;20.40;49.70;;;;;;5113274;28;20382;-54
2021/11/20 08:09:27;;;;;;;5.35;2.50;;;20.40;49.70;;;;;;5113437;28;20038;-50
2021/11/20 08:11:53;;;;;;;5.57;2.17;;;20.40;49.60;;;;;;5113326;28;20024;-53
2021/11/20 08:14:21;;;;;;;6.43;2.60;;;20.40;49.60;;;;;;5113973;28;20019;-54
2021/11/20 08:16:47;;;;;;;4.72;2.20;;;20.40;49.60;;;;;;5113240;28;20023;-55
2021/11/20 08:19:13;;;;;;;5.10;2.10;;;20.40;49.70;;;;;;5113300;28;20412;-54
2021/11/20 08:21:38;;;;;;;3.67;2.05;;;20.40;49.60;;;;;;5113125;28;20057;-50
2021/11/20 08:24:04;;;;;;;4.40;2.08;;;20.40;49.60;;;;;;5113305;28;20027;-51
2021/11/20 08:26:35;;;;;;;5.82;2.78;;;20.40;49.60;;;;;;5113514;28;20073;-52
2021/11/20 08:29:06;;;;;;;5.03;2.70;;;20.40;49.60;;;;;;5113311;28;20110;-52
2021/11/20 08:31:33;;;;;;;4.53;2.20;;;20.40;49.60;;;;;;5113052;28;20019;-58
2021/11/20 08:33:59;;;;;;;5.25;2.60;;;20.40;49.50;;;;;;5112988;28;20028;-54
2021/11/20 08:36:25;;;;;;;4.82;2.30;;;20.40;49.60;;;;;;5112997;28;20022;-52
2021/11/20 08:38:50;;;;;;;5.10;2.40;;;20.40;49.60;;;;;;5113226;28;20023;-51
2021/11/20 08:41:16;;;;;;;7.78;2.30;;;20.40;49.60;;;;;;5112579;28;20047;-51
2021/11/20 08:43:41;;;;;;;3.70;1.83;;;20.40;49.60;;;;;;5113139;28;20042;-50
2021/11/20 08:46:08;;;;;;;5.30;2.30;;;20.40;49.60;;;;;;5115896;28;20023;-53
2021/11/20 08:48:35;;;;;;;4.07;1.98;;;20.40;49.50;;;;;;5116781;28;20074;-53
2021/11/20 08:51:05;;;;;;;4.10;2.10;;;20.40;49.60;;;;;;5116600;28;20475;-51
2021/11/20 08:53:31;;;;;;;4.75;2.13;;;20.40;49.50;;;;;;5116580;28;20031;-50
2021/11/20 08:55:58;;;;;;;4.82;2.38;;;20.40;49.60;;;;;;5116714;28;20028;-51
2021/11/20 08:58:23;;;;;;;5.07;2.30;;;20.40;49.50;;;;;;5116669;28;20027;-53
2021/11/20 09:00:57;;;;;;;4.07;2.10;;;20.40;49.60;;;;;;5116438;28;20047;-50
2021/11/20 09:03:35;;;;;;;3.42;1.73;;;20.40;49.60;;;;;;5114731;28;20035;-51
2021/11/20 09:06:20;;;;;;;3.95;1.88;;;20.40;49.50;;;;;;5116219;28;20023;-52
2021/11/20 09:09:21;;;;;;;4.85;2.20;;;20.40;49.50;;;;;;5116472;28;20023;-52
2021/11/20 09:11:57;;;;;;;5.60;2.47;;;20.40;49.50;;;;;;5109244;28;20032;-52
2021/11/20 09:14:37;;;;;;;4.13;2.00;;;20.40;49.50;;;;;;5116221;27;20072;-55
2021/11/20 09:17:04;;;;;;;5.55;2.53;;;20.40;49.50;;;;;;5116374;28;20024;-54
2021/11/20 09:19:32;;;;;;;4.45;2.47;;;20.40;49.50;;;;;;5116078;28;20020;-54
2021/11/20 09:21:59;;;;;;;5.47;2.33;;;20.40;49.60;;;;;;5116219;28;20036;-50
2021/11/20 09:24:29;;;;;;;4.22;2.03;;;20.40;49.60;;;;;;5115913;28;20031;-51
2021/11/20 09:26:54;;;;;;;4.78;2.45;;;20.40;49.60;;;;;;5115958;28;20032;-56
2021/11/20 09:29:23;;;;;;;5.38;2.90;;;20.40;49.60;;;;;;5115664;28;20042;-52
2021/11/20 09:31:50;;;;;;;4.97;2.33;;;20.40;49.50;;;;;;5115864;28;20028;-49
2021/11/20 09:34:16;;;;;;;5.65;2.45;;;20.40;49.50;;;;;;5115750;28;20020;-52
2021/11/20 09:36:43;;;;;;;5.00;2.35;;;20.40;49.50;;;;;;5115879;28;20031;-54
2021/11/20 09:39:11;;;;;;;4.82;2.17;;;20.40;49.50;;;;;;5115825;28;20067;-54
2021/11/20 09:41:53;;;;;;;5.25;2.28;;;20.40;49.50;;;;;;5115342;28;20047;-55
2021/11/20 09:44:20;;;;;;;6.50;2.17;;;20.40;49.50;;;;;;5115834;28;20028;-53
2021/11/20 09:46:49;;;;;;;5.28;1.85;;;20.50;49.50;;;;;;5115773;28;20031;-56
2021/11/20 09:49:26;;;;;;;4.93;2.33;;;20.40;49.50;;;;;;5115448;28;20489;-50
2021/11/20 09:51:53;;;;;;;4.50;2.20;;;20.40;49.50;;;;;;5115360;28;20110;-55
2021/11/20 09:54:22;;;;;;;5.35;2.45;;;20.40;49.40;;;;;;5115353;28;20031;-50
2021/11/20 09:57:02;;;;;;;5.50;2.20;;;20.40;49.50;;;;;;5115047;28;20571;-53
2021/11/20 09:59:46;;;;;;;6.50;2.28;;;20.40;49.50;;;;;;5115549;28;20461;-53
2021/11/20 10:02:24;;;;;;;4.90;2.47;;;20.40;49.50;;;;;;5115232;28;20531;-54
2021/11/20 10:04:58;;;;;;;5.10;2.40;;;20.40;49.50;;;;;;5115400;28;20038;-53
2021/11/20 10:07:39;;;;;;;5.28;2.42;;;20.40;49.50;;;;;;5117044;28;20106;-54
2021/11/20 10:10:18;;;;;;;4.00;2.20;;;20.40;49.40;;;;;;5115078;28;20478;-54
2021/11/20 10:12:48;;;;;;;4.63;2.20;;;20.40;49.50;;;;;;5116034;28;20382;-55
2021/11/20 10:15:29;;;;;;;5.40;2.40;;;20.40;49.50;;;;;;5115145;28;20483;-54
2021/11/20 10:18:03;;;;;;;5.32;2.35;;;20.40;49.50;;;;;;5115233;28;20016;-55
2021/11/20 10:20:28;;;;;;;;;;;20.40;49.50;;;;;;5115496;28;20386;-55
2021/11/20 10:23:17;;;;;;;4.38;2.20;;;20.40;49.40;;;;;;5115048;28;19916;-54
2021/11/20 10:26:02;;;;;;;5.03;2.45;;;20.40;49.40;;;;;;5114886;28;20172;-52
2021/11/20 10:28:51;;;;;;;4.45;2.25;;;20.40;49.50;;;;;;5115189;28;20028;-54
2021/11/20 10:31:25;;;;;;;4.82;2.20;;;20.40;49.50;;;;;;5115046;28;20371;-53
2021/11/20 10:33:58;;;;;;;;;;;20.40;49.50;;;;;;5114970;28;20368;-51
2021/11/20 10:36:42;;;;;;;5.05;2.28;;;20.40;49.40;;;;;;5117082;28;20312;-53
2021/11/20 10:39:23;;;;;;;4.25;2.20;;;20.40;49.40;;;;;;5116845;28;20030;-54
2021/11/20 10:42:03;;;;;;;4.72;2.08;;;20.40;49.50;;;;;;5117106;28;20052;-53
2021/11/20 10:44:38;;;;;;;4.07;1.85;;;20.40;49.50;;;;;;5116687;28;20030;-55
2021/11/20 10:47:14;;;;;;;4.72;2.40;;;20.40;49.40;;;;;;5117767;28;20027;-53
2021/11/20 10:49:56;;;;;;;4.85;2.20;;;20.40;49.50;;;;;;5114951;28;20441;-50
2021/11/20 10:52:40;;;;;;;3.53;1.70;;;20.40;49.40;;;;;;5117151;27;20024;-51
2021/11/20 10:55:26;;;;;;;3.40;1.75;;;20.40;49.50;;;;;;5114299;28;20081;-50
2021/11/20 10:58:31;;;;;;;4.45;2.35;;;20.40;49.50;;;;;;5114075;28;20065;-51
2021/11/20 11:01:02;;;;;;;;;;;20.40;49.50;;;;;;5114661;28;20019;-51
2021/11/20 11:03:35;;;;;;;4.80;2.28;;;20.40;49.40;;;;;;5113861;28;19911;-54
2021/11/20 11:06:20;;;;;;;4.22;2.10;;;20.40;49.40;;;;;;5114409;28;20034;-50
2021/11/20 11:08:53;;;;;;;4.40;2.08;;;20.40;49.50;;;;;;5113447;28;20019;-53
2021/11/20 11:11:39;;;;;;;4.65;2.13;;;20.30;49.50;;;;;;5113832;28;20028;-52
2021/11/20 11:14:27;;;;;;;3.40;2.03;;;20.40;49.40;;;;;;5113688;28;20030;-53
2021/11/20 11:17:15;;;;;;;4.82;1.95;;;20.40;49.40;;;;;;5113563;28;20411;-53
2021/11/20 11:19:44;;;;;;;4.75;2.05;;;20.40;49.40;;;;;;5113552;28;20068;-51
2021/11/20 11:22:25;;;;;;;4.43;2.10;;;20.40;49.40;;;;;;5112174;28;20474;-49
2021/11/20 11:25:17;;;;;;;5.00;2.15;;;20.40;49.40;;;;;;5113537;28;20027;-51
2021/11/20 11:28:23;;;;;;;5.82;2.28;;;20.40;49.40;;;;;;5113496;28;20019;-51
2021/11/20 11:30:54;;;;;;;4.93;2.35;;;20.40;49.40;;;;;;5113698;28;20034;-51
2021/11/20 11:33:21;;;;;;;4.57;2.17;;;20.40;49.30;;;;;;5113542;28;20382;-51
2021/11/20 11:36:25;;;;;;;3.90;2.00;;;20.40;49.30;;;;;;5113408;28;20103;-49
2021/11/20 11:39:22;;;;;;;5.20;2.25;;;20.40;49.40;;;;;;5110333;28;20043;-51
2021/11/20 11:41:53;;;;;;;4.60;1.90;;;20.40;49.40;;;;;;5081246;28;20124;-53
2021/11/20 11:44:51;;;;;;;4.70;2.17;;;20.40;49.30;;;;;;5113308;28;20028;-54
2021/11/20 11:47:28;;;;;;;5.75;2.10;;;20.40;49.30;;;;;;5113369;28;20371;-50
2021/11/20 11:50:25;;;;;;;4.00;1.65;;;20.40;49.30;;;;;;5113287;28;20088;-52
2021/11/20 11:53:09;;;;;;;4.20;2.10;;;20.40;49.40;;;;;;5111804;28;20016;-54
2021/11/20 11:55:58;;;;;;;4.30;1.98;;;20.40;49.30;;;;;;5113177;28;20032;-52
2021/11/20 11:58:30;;;;;;;3.53;1.73;;;20.40;49.30;;;;;;5113745;28;20055;-53
2021/11/20 12:01:15;;;;;;;3.90;2.20;;;20.40;49.30;;;;;;5111634;28;20073;-51
2021/11/20 12:04:05;;;;;;;3.30;1.73;;;20.40;49.30;;;;;;5113402;28;20036;-52
2021/11/20 12:06:46;;;;;;;4.47;2.13;;;20.40;49.30;;;;;;5105953;28;20069;-52
2021/11/20 12:09:30;;;;;;;4.15;1.90;;;20.40;49.30;;;;;;5113401;28;20028;-49
2021/11/20 12:12:08;;;;;;;3.90;2.00;;;20.40;49.30;;;;;;5113493;28;20023;-50
2021/11/20 12:14:38;;;;;;;4.72;2.00;;;20.40;49.30;;;;;;5113255;28;20023;-50
2021/11/20 12:17:26;;;;;;;4.72;2.17;;;20.40;49.20;;;;;;5113239;28;20028;-53
2021/11/20 12:20:15;;;;;;;4.68;2.10;;;20.40;49.20;;;;;;5115769;28;20359;-54
2021/11/20 12:23:14;;;;;;;3.72;2.03;;;20.40;49.20;;;;;;5116989;28;20501;-51
2021/11/20 12:25:51;;;;;;;3.75;2.00;;;20.40;49.30;;;;;;5116843;28;20035;-52
2021/11/20 12:28:28;;;;;;;4.80;2.35;;;20.40;49.20;;;;;;5117410;28;20023;-51
2021/11/20 12:31:24;;;;;;;2.67;1.63;;;20.40;49.20;;;;;;5117234;28;20028;-54
2021/11/20 12:33:56;;;;;;;5.45;2.22;;;20.40;49.20;;;;;;5116786;28;20028;-53
2021/11/20 12:36:47;;;;;;;4.18;1.90;;;20.40;49.20;;;;;;5117039;28;20028;-52
2021/11/20 12:39:38;;;;;;;4.15;1.98;;;20.40;49.20;;;;;;5116776;28;20023;-50
2021/11/20 12:42:36;;;;;;;5.18;2.08;;;20.40;49.20;;;;;;5116557;28;20131;-55
2021/11/20 12:45:37;;;;;;;3.72;2.08;;;20.40;49.20;;;;;;5116709;28;20023;-51
2021/11/20 12:48:33;;;;;;;4.95;2.25;;;20.40;49.20;;;;;;5113570;28;20046;-52
2021/11/20 12:51:05;;;;;;;4.57;2.08;;;20.40;49.10;;;;;;5116374;28;20028;-52
2021/11/20 12:53:53;;;;;;;3.30;1.85;;;20.40;49.10;;;;;;5116523;28;20012;-51
2021/11/20 12:56:18;;;;;;;5.15;2.42;;;20.40;49.20;;;;;;5116845;28;20031;-53
2021/11/20 12:58:56;;;;;;;3.42;1.75;;;20.40;49.20;;;;;;5116479;28;20020;-55
2021/11/20 13:01:29;;;;;;;3.90;1.95;;;20.40;49.10;;;;;;5116504;28;20059;-54
2021/11/20 13:04:15;;;;;;;3.83;1.77;;;20.40;49.10;;;;;;5116100;28;20036;-54
2021/11/20 13:07:01;;;;;;;3.55;1.75;;;20.40;49.10;;;;;;5116409;28;20072;-54
2021/11/20 13:09:32;;;;;;;3.05;1.48;;;20.40;49.10;;;;;;5116041;28;20030;-50
2021/11/20 13:12:15;;;;;;;3.08;1.70;;;20.40;49.00;;;;;;5116441;28;20027;-55
2021/11/20 13:15:09;;;;;;;3.42;1.83;;;20.40;49.10;;;;;;5116327;28;20035;-54
2021/11/20 13:17:52;;;;;;;4.77;1.93;;;20.40;49.10;;;;;;5116213;28;20494;-54